Time;durP1;ratioP1;P1;durP2;ratioP2;P2;SDS_P1;SDS_P2;PMS_P1;PMS_P2;Temp;Humidity;BMP_temperature;BMP_pressure;BME280_temperature;BME280_humidity;BME280_pressure;Samples;Min_cycle;Max_cycle;Signal;HPM_P1;HPM_P2
2021/10/15 00:02:01;;;;;;;11.55;8.50;;;;;;;19.11;61.76;100847.84;4997401;28;20026;-94
2021/10/15 00:04:26;;;;;;;12.68;6.53;;;;;;;19.21;61.82;100855.78;4997434;28;20400;-96
2021/10/15 00:06:51;;;;;;;10.60;6.15;;;;;;;19.01;62.30;100855.91;4996210;28;20041;-96
2021/10/15 00:09:17;;;;;;;16.17;7.90;;;;;;;18.97;62.37;100862.50;4996083;28;20026;-96
2021/10/15 00:11:45;;;;;;;12.23;6.75;;;;;;;18.85;62.66;100853.03;4996399;28;20053;-96
2021/10/15 00:14:11;;;;;;;16.02;8.07;;;;;;;18.72;63.35;100861.34;4996309;28;20022;-96
2021/10/15 00:16:37;;;;;;;12.07;6.28;;;;;;;18.90;62.65;100844.59;5000886;28;20395;-96
2021/10/15 00:19:03;;;;;;;13.38;7.15;;;;;;;18.37;64.31;100846.91;5015780;28;20036;-95
2021/10/15 00:21:28;;;;;;;11.10;8.00;;;;;;;18.64;63.99;100850.56;5015547;28;20087;-95
2021/10/15 00:23:54;;;;;;;11.95;8.02;;;;;;;18.68;63.91;100843.16;5015685;28;20550;-95
2021/10/15 00:26:19;;;;;;;8.15;6.50;;;;;;;18.55;64.11;100835.50;5033202;28;20025;-95
2021/10/15 00:28:44;;;;;;;18.77;7.57;;;;;;;18.50;64.34;100843.06;5033220;28;20021;-95
2021/10/15 00:31:10;;;;;;;13.45;7.93;;;;;;;18.45;64.43;100829.41;5013242;28;20029;-95
2021/10/15 00:33:35;;;;;;;10.25;6.38;;;;;;;18.51;64.34;100845.59;4995707;28;20500;-95
2021/10/15 00:36:01;;;;;;;13.15;7.57;;;;;;;18.52;64.19;100834.00;4995998;28;20396;-95
2021/10/15 00:38:26;;;;;;;15.25;7.55;;;;;;;18.45;64.67;100834.72;4995472;28;20022;-95
2021/10/15 00:40:52;;;;;;;12.60;6.97;;;;;;;18.29;65.35;100830.00;4995652;28;20057;-94
2021/10/15 00:43:17;;;;;;;10.10;6.57;;;;;;;18.43;64.66;100827.69;4996197;28;20026;-96
2021/10/15 00:45:43;;;;;;;10.23;6.97;;;;;;;18.50;64.27;100832.44;4996857;28;20123;-96
2021/10/15 00:48:09;;;;;;;17.77;8.10;;;;;;;18.34;64.66;100831.22;4996445;28;20046;-95
2021/10/15 00:50:34;;;;;;;10.15;6.60;;;;;;;18.51;64.43;100831.47;4995550;28;20057;-94
2021/10/15 00:53:00;;;;;;;11.85;6.13;;;;;;;18.59;64.46;100831.56;4995595;28;20029;-96
2021/10/15 00:55:26;;;;;;;12.70;6.53;;;;;;;18.59;64.46;100829.75;4995922;28;20022;-96
2021/10/15 00:57:51;;;;;;;9.70;6.22;;;;;;;18.53;64.71;100825.00;4996274;28;20033;-95
2021/10/15 01:00:16;;;;;;;7.43;6.28;;;;;;;18.61;64.59;100830.44;4995809;28;20034;-96
2021/10/15 01:02:43;;;;;;;11.73;7.20;;;;;;;18.49;65.31;100817.47;5008612;28;20017;-94
2021/10/15 01:05:09;;;;;;;8.68;5.93;;;;;;;18.21;65.77;100823.56;5014931;28;20033;-95
2021/10/15 01:07:37;;;;;;;16.17;7.40;;;;;;;18.18;66.68;100802.59;5015741;28;20026;-96
2021/10/15 01:10:04;;;;;;;10.82;6.22;;;;;;;18.36;66.18;100809.81;5015132;28;20017;-96
2021/10/15 01:12:30;;;;;;;15.73;6.90;;;;;;;18.21;66.10;100812.94;5016299;28;20026;-96
2021/10/15 01:14:55;;;;;;;11.48;5.75;;;;;;;18.34;65.89;100811.78;5015345;28;20028;-96
2021/10/15 01:17:21;;;;;;;11.13;6.18;;;;;;;18.20;66.52;100805.94;5001497;28;20034;-96
2021/10/15 01:19:51;;;;;;;11.15;5.93;;;;;;;18.13;66.72;100810.16;4996887;28;20058;-96
2021/10/15 01:22:17;;;;;;;12.43;5.90;;;;;;;18.27;66.39;100800.91;4997345;28;20034;-96
2021/10/15 01:24:42;;;;;;;9.90;5.97;;;;;;;18.21;67.06;100814.78;4999875;28;20037;-96
2021/10/15 01:27:09;;;;;;;19.27;6.43;;;;;;;18.17;67.41;100810.72;5000349;28;20116;-96
2021/10/15 01:29:36;;;;;;;12.07;5.38;;;;;;;18.47;65.98;100820.28;5000880;28;20022;-96
2021/10/15 01:32:02;;;;;;;10.48;4.70;;;;;;;18.48;65.98;100806.00;4999944;28;20018;-96
2021/10/15 01:34:27;;;;;;;7.85;3.55;;;;;;;18.56;65.38;100806.13;5011601;28;20116;-96
2021/10/15 01:36:53;;;;;;;11.30;4.13;;;;;;;18.59;65.59;100811.13;5018919;28;20075;-96
2021/10/15 01:39:18;;;;;;;12.38;3.78;;;;;;;18.66;65.26;100815.84;5018554;28;20472;-96
2021/10/15 01:41:44;;;;;;;10.50;4.03;;;;;;;18.68;65.04;100808.56;5019052;28;20030;-96
2021/10/15 01:44:09;;;;;;;10.85;4.07;;;;;;;18.64;64.98;100802.69;5018837;28;20494;-96
2021/10/15 01:46:35;;;;;;;9.00;3.17;;;;;;;18.74;64.85;100807.97;5016925;28;20044;-96
2021/10/15 01:49:00;;;;;;;7.82;3.85;;;;;;;18.69;64.82;100795.13;5018637;28;20025;-96
2021/10/15 01:51:26;;;;;;;8.57;3.22;;;;;;;18.59;65.04;100795.16;5018313;28;20063;-96
2021/10/15 01:53:51;;;;;;;10.60;3.45;;;;;;;18.61;65.09;100800.34;5018513;28;20032;-96
2021/10/15 01:56:17;;;;;;;7.53;3.38;;;;;;;18.54;65.32;100796.59;5018520;28;20088;-96
2021/10/15 01:58:42;;;;;;;8.20;3.53;;;;;;;18.58;64.88;100793.50;5018704;28;20116;-96
2021/10/15 02:01:08;;;;;;;9.48;3.55;;;;;;;18.55;65.15;100787.66;5019450;28;20021;-96
2021/10/15 02:03:33;;;;;;;14.07;2.80;;;;;;;18.64;64.99;100789.41;4999903;28;20051;-96
2021/10/15 02:05:58;;;;;;;8.75;2.45;;;;;;;18.58;65.37;100790.84;4999850;28;20033;-96
2021/10/15 02:08:24;;;;;;;14.07;3.55;;;;;;;18.49;65.25;100786.41;4999657;28;20211;-96
2021/10/15 02:10:50;;;;;;;6.50;2.33;;;;;;;18.39;65.84;100793.59;4999717;28;20096;-96
2021/10/15 02:13:15;;;;;;;13.48;3.70;;;;;;;18.24;66.84;100786.06;5000798;28;20225;-96
2021/10/15 02:15:40;;;;;;;13.23;4.53;;;;;;;18.04;67.75;100777.31;5000029;28;20065;-96
2021/10/15 02:18:06;;;;;;;14.15;4.47;;;;;;;18.17;67.54;100784.97;5017053;28;20022;-96
2021/10/15 02:20:32;;;;;;;12.60;2.70;;;;;;;18.19;66.83;100779.53;5018109;28;20068;-96
2021/10/15 02:22:57;;;;;;;17.23;2.75;;;;;;;17.90;68.23;100753.03;5018256;28;20071;-96
2021/10/15 02:25:23;;;;;;;15.98;3.08;;;;;;;17.82;68.52;100746.56;5017774;28;20029;-96
2021/10/15 02:27:49;;;;;;;14.50;3.00;;;;;;;18.16;67.27;100750.56;5019172;28;20021;-96
2021/10/15 02:30:17;;;;;;;8.73;2.97;;;;;;;18.23;67.33;100765.78;5018830;28;20032;-96
2021/10/15 02:32:43;;;;;;;13.02;2.80;;;;;;;18.23;67.00;100760.47;5017454;28;20116;-96
2021/10/15 02:35:10;;;;;;;11.18;2.47;;;;;;;18.31;66.86;100748.28;5019754;28;20057;-96
2021/10/15 02:37:36;;;;;;;9.15;2.95;;;;;;;18.38;66.22;100755.53;5018286;28;20040;-96
2021/10/15 02:40:02;;;;;;;11.88;3.05;;;;;;;18.35;66.48;100750.50;5019419;28;20108;-96
2021/10/15 02:42:28;;;;;;;15.32;3.40;;;;;;;18.33;66.29;100747.16;5018967;28;20380;-96
2021/10/15 02:44:53;;;;;;;11.45;3.75;;;;;;;18.22;67.09;100760.63;5022857;28;20029;-96
2021/10/15 02:47:19;;;;;;;14.25;2.92;;;;;;;18.12;67.21;100751.84;5001151;28;20037;-96
2021/10/15 02:49:44;;;;;;;12.93;3.17;;;;;;;18.21;66.93;100762.44;4997944;28;20018;-96
2021/10/15 02:52:10;;;;;;;11.30;3.22;;;;;;;18.15;67.27;100763.03;4998630;28;20026;-96
2021/10/15 02:54:35;;;;;;;8.88;2.88;;;;;;;18.16;66.75;100755.88;4999099;28;20109;-96
2021/10/15 02:57:01;;;;;;;11.32;3.45;;;;;;;17.83;67.92;100745.63;4997948;28;20029;-96
2021/10/15 02:59:26;;;;;;;9.43;2.92;;;;;;;18.01;67.13;100755.53;4998388;28;20095;-96
2021/10/15 03:01:51;;;;;;;10.15;2.83;;;;;;;17.81;67.32;100746.72;5000409;28;20041;-96
2021/10/15 03:04:17;;;;;;;9.48;3.05;;;;;;;17.81;67.55;100744.06;4998380;28;20022;-96
2021/10/15 03:06:42;;;;;;;11.82;3.13;;;;;;;18.02;66.98;100759.84;4999074;28;20040;-96
2021/10/15 03:09:08;;;;;;;10.48;2.63;;;;;;;18.11;66.35;100742.19;5004076;28;20026;-96
2021/10/15 03:11:34;;;;;;;8.50;2.53;;;;;;;18.11;66.41;100748.38;5018369;28;20029;-96
2021/10/15 03:13:59;;;;;;;12.23;2.95;;;;;;;17.89;67.58;100752.19;5021917;28;20372;-96
2021/10/15 03:16:25;;;;;;;9.35;2.83;;;;;;;18.07;67.01;100752.28;5018182;28;20439;-96
2021/10/15 03:18:50;;;;;;;8.32;2.90;;;;;;;18.11;66.60;100745.69;5017287;28;20500;-96
2021/10/15 03:21:16;;;;;;;20.08;3.08;;;;;;;17.86;67.58;100738.38;5021581;28;20049;-96
2021/10/15 03:23:41;;;;;;;8.75;2.60;;;;;;;17.95;67.68;100750.75;5016409;28;20025;-96
2021/10/15 03:26:07;;;;;;;11.80;3.40;;;;;;;17.83;67.28;100731.47;5000131;28;20121;-96
2021/10/15 03:28:32;;;;;;;12.05;3.10;;;;;;;17.83;67.15;100734.13;5000145;28;20026;-96
2021/10/15 03:30:58;;;;;;;9.02;2.70;;;;;;;17.85;67.18;100740.16;5000022;28;20025;-96
2021/10/15 03:33:23;;;;;;;8.73;2.70;;;;;;;17.79;67.33;100732.72;4998569;28;20029;-96
2021/10/15 03:35:49;;;;;;;13.88;3.45;;;;;;;17.71;67.47;100737.94;4997316;28;20116;-96
2021/10/15 03:38:14;;;;;;;9.63;2.85;;;;;;;17.75;67.19;100731.34;4997174;28;20022;-96
2021/10/15 03:40:39;;;;;;;9.38;3.05;;;;;;;17.95;66.94;100746.31;5013272;28;20033;-96
2021/10/15 03:43:05;;;;;;;11.48;3.00;;;;;;;17.69;68.00;100740.72;5016398;28;20021;-96
2021/10/15 03:45:30;;;;;;;9.70;3.05;;;;;;;17.66;67.96;100743.69;5032801;28;20127;-96
2021/10/15 03:47:56;;;;;;;12.48;2.95;;;;;;;17.69;68.02;100754.00;5014781;28;20033;-96
2021/10/15 03:50:22;;;;;;;8.38;3.17;;;;;;;17.69;67.91;100742.53;5016292;28;20033;-96
2021/10/15 03:52:47;;;;;;;9.35;3.08;;;;;;;17.84;67.90;100763.22;5016581;28;20067;-96
2021/10/15 03:55:13;;;;;;;12.10;2.90;;;;;;;17.84;67.71;100760.56;5016329;28;20053;-96
2021/10/15 03:57:40;;;;;;;14.70;4.60;;;;;;;18.07;66.93;100746.97;5016203;28;20025;-96
2021/10/15 04:00:08;;;;;;;10.25;3.75;;;;;;;18.11;66.71;100756.34;5016040;28;20025;-96
2021/10/15 04:02:42;;;;;;;13.85;3.00;;;;;;;18.18;67.17;100765.38;5014224;28;20087;-95
2021/10/15 04:05:08;;;;;;;7.18;2.92;;;;;;;18.23;66.52;100751.69;5015333;28;20025;-96
2021/10/15 04:07:34;;;;;;;8.43;2.72;;;;;;;18.26;66.41;100763.84;5032925;28;20102;-96
2021/10/15 04:10:00;;;;;;;11.25;3.25;;;;;;;18.17;66.15;100757.56;5033298;28;20424;-95
2021/10/15 04:12:25;;;;;;;10.45;3.60;;;;;;;18.18;66.14;100760.06;5015388;28;20028;-96
2021/10/15 04:14:51;;;;;;;12.43;3.35;;;;;;;18.11;66.09;100761.66;5015475;28;20353;-95
2021/10/15 04:17:16;;;;;;;8.23;2.60;;;;;;;18.13;65.91;100762.34;5013833;28;20061;-96
2021/10/15 04:19:42;;;;;;;9.23;3.38;;;;;;;18.09;66.50;100766.28;5015356;28;20127;-96
2021/10/15 04:22:10;;;;;;;9.13;3.08;;;;;;;18.10;66.33;100757.31;5015539;28;20025;-95
2021/10/15 04:24:37;;;;;;;8.82;2.67;;;;;;;18.10;66.54;100762.63;5015997;28;20057;-96
2021/10/15 04:27:02;;;;;;;8.70;2.90;;;;;;;18.12;66.75;100759.81;5015408;28;20029;-96
2021/10/15 04:29:28;;;;;;;6.13;2.83;;;;;;;18.22;66.47;100779.22;5015720;28;20013;-96
2021/10/15 04:31:53;;;;;;;8.77;3.28;;;;;;;18.22;66.64;100772.06;5028717;28;20127;-95
2021/10/15 04:34:18;;;;;;;9.85;3.40;;;;;;;18.20;66.72;100766.06;4995507;28;20076;-95
2021/10/15 04:36:44;;;;;;;8.68;3.10;;;;;;;18.25;66.63;100763.00;4995564;28;20076;-95
2021/10/15 04:39:09;;;;;;;8.70;3.85;;;;;;;18.21;66.78;100759.78;4995418;28;20018;-96
2021/10/15 04:41:35;;;;;;;12.90;3.60;;;;;;;18.33;66.97;100776.41;4995628;28;20026;-96
2021/10/15 04:44:00;;;;;;;10.30;3.17;;;;;;;18.29;67.02;100771.53;4995617;28;20037;-96
2021/10/15 04:46:27;;;;;;;14.20;3.40;;;;;;;18.36;66.92;100775.25;4997372;28;20057;-96
2021/10/15 04:48:53;;;;;;;7.97;3.50;;;;;;;18.41;66.92;100771.19;5014805;28;20065;-96
2021/10/15 04:51:18;;;;;;;10.43;3.25;;;;;;;18.46;66.85;100776.06;5015230;28;20556;-96
2021/10/15 04:53:43;;;;;;;15.07;3.92;;;;;;;18.42;67.02;100766.69;5015054;28;20025;-96
2021/10/15 04:56:09;;;;;;;13.07;4.15;;;;;;;18.46;66.88;100770.72;5014698;28;20068;-96
2021/10/15 04:58:34;;;;;;;12.25;3.58;;;;;;;18.54;66.77;100776.19;5014916;28;20124;-96
2021/10/15 05:00:59;;;;;;;13.60;4.25;;;;;;;18.54;66.70;100768.19;5005379;28;20503;-96
2021/10/15 05:03:25;;;;;;;13.13;3.42;;;;;;;18.57;66.82;100772.38;5032254;28;20026;-96
2021/10/15 05:05:50;;;;;;;10.68;3.55;;;;;;;18.59;66.67;100776.56;5014856;28;20036;-96
2021/10/15 05:08:16;;;;;;;12.43;3.28;;;;;;;18.62;66.58;100768.28;5032106;28;20021;-96
2021/10/15 05:10:44;;;;;;;11.13;3.97;;;;;;;18.67;66.39;100769.66;5014547;28;20056;-96
2021/10/15 05:13:11;;;;;;;12.57;4.35;;;;;;;18.68;66.51;100776.66;5014960;28;20021;-96
2021/10/15 05:15:36;;;;;;;7.55;3.22;;;;;;;18.40;67.38;100769.53;5014672;28;20036;-96
2021/10/15 05:18:02;;;;;;;14.35;3.75;;;;;;;18.60;66.83;100769.41;4995184;28;20030;-96
2021/10/15 05:20:27;;;;;;;11.35;4.10;;;;;;;18.54;67.03;100775.31;5012680;28;20116;-96
2021/10/15 05:22:53;;;;;;;10.45;4.07;;;;;;;18.68;67.04;100777.50;4995157;28;20056;-96
2021/10/15 05:25:18;;;;;;;16.38;3.80;;;;;;;18.61;66.75;100771.09;4994962;28;20030;-96
2021/10/15 05:27:44;;;;;;;8.90;3.53;;;;;;;18.46;67.59;100777.88;4995010;28;20075;-96
2021/10/15 05:30:10;;;;;;;10.13;3.78;;;;;;;18.44;67.80;100780.69;4995065;28;20109;-96
2021/10/15 05:32:37;;;;;;;11.10;4.22;;;;;;;18.41;67.79;100784.47;5035405;28;20076;-96
2021/10/15 05:35:04;;;;;;;7.10;3.30;;;;;;;18.47;68.03;100784.88;5019584;28;20032;-96
2021/10/15 05:37:32;;;;;;;15.20;4.85;;;;;;;18.46;67.70;100784.03;5019218;28;20030;-96
2021/10/15 05:39:58;;;;;;;12.57;4.45;;;;;;;18.49;67.54;100782.91;4998946;28;20498;-96
2021/10/15 05:42:23;;;;;;;11.55;3.80;;;;;;;18.45;67.37;100773.56;4997738;28;20116;-91
2021/10/15 05:44:49;;;;;;;9.10;3.30;;;;;;;18.41;67.17;100765.03;5016133;28;20464;-96
2021/10/15 05:47:17;;;;;;;6.78;3.58;;;;;;;18.39;66.73;100772.31;5374400;23;20032;-96
2021/10/15 05:50:10;;;;;;;15.38;4.15;;;;;;;18.24;67.24;100759.47;5691298;22;21234;-96
2021/10/15 05:52:42;;;;;;;10.88;3.83;;;;;;;18.27;67.10;100774.31;5456374;22;20056;-94
2021/10/15 06:00:07;;;;;;;12.40;3.67;;;;;;;18.15;66.73;100768.34;5035553;28;20025;-96
2021/10/15 06:02:49;;;;;;;7.68;3.08;;;;;;;18.17;67.23;100774.34;5020817;28;20017;-96
2021/10/15 06:16:32;;;;;;;9.73;3.28;;;;;;;17.99;67.15;100776.06;5026185;28;20036;-96
2021/10/15 06:19:06;;;;;;;9.82;3.30;;;;;;;17.97;66.83;100772.72;5011007;28;20089;-96
2021/10/15 06:21:42;;;;;;;11.73;3.80;;;;;;;17.87;67.22;100766.59;5022832;28;20036;-96
2021/10/15 06:24:28;;;;;;;;;;;;;;;;;;;;;
2021/10/15 06:27:57;;;;;;;9.85;2.97;;;;;;;17.86;67.17;100778.22;5020323;28;20117;-96
2021/10/15 06:31:12;;;;;;;11.35;3.38;;;;;;;17.89;67.28;100797.38;4991410;28;20042;-96
2021/10/15 06:33:37;;;;;;;7.35;3.58;;;;;;;17.81;67.07;100784.75;4994970;28;20042;-96
2021/10/15 06:36:16;;;;;;;6.50;3.60;;;;;;;17.83;67.32;100782.81;5028384;28;20047;-96
2021/10/15 06:38:42;;;;;;;7.88;3.40;;;;;;;17.92;67.30;100804.19;5016270;28;20030;-94
2021/10/15 06:41:07;;;;;;;7.25;3.20;;;;;;;17.77;67.39;100794.00;5000083;28;20029;-90
2021/10/15 06:43:33;;;;;;;11.15;3.72;;;;;;;17.80;66.91;100792.84;5020182;28;20036;-96
2021/10/15 06:46:05;;;;;;;9.20;3.10;;;;;;;17.78;67.23;100790.34;4998752;28;20392;-96
2021/10/15 06:48:40;;;;;;;8.10;3.13;;;;;;;17.72;67.29;100790.91;5006029;28;20052;-96
2021/10/15 06:51:11;;;;;;;9.88;3.50;;;;;;;17.77;67.33;100793.13;4981508;28;20034;-96
2021/10/15 06:58:53;;;;;;;5.85;2.75;;;;;;;17.84;67.39;100797.75;5019093;28;20123;-96
2021/10/15 07:01:21;;;;;;;9.27;3.67;;;;;;;17.88;67.29;100803.63;4999336;28;20072;-96
2021/10/15 07:03:47;;;;;;;7.20;2.70;;;;;;;17.82;67.17;100797.03;4998143;28;20026;-96
2021/10/15 07:06:12;;;;;;;8.68;3.33;;;;;;;18.05;66.83;100823.34;5001352;28;20037;-96
2021/10/15 07:08:40;;;;;;;7.78;2.97;;;;;;;18.05;66.71;100810.06;4998956;28;20037;-96
2021/10/15 07:11:05;;;;;;;11.10;3.15;;;;;;;18.12;66.68;100828.91;4998027;28;20026;-95
2021/10/15 07:13:31;;;;;;;10.57;3.00;;;;;;;18.13;66.80;100831.44;4996889;28;20076;-96
2021/10/15 07:16:07;;;;;;;7.45;3.92;;;;;;;18.20;66.81;100829.03;5006846;28;20041;-96
2021/10/15 07:18:42;;;;;;;6.70;2.58;;;;;;;18.17;66.70;100816.88;5029776;28;20026;-96
2021/10/15 07:21:17;;;;;;;7.55;2.70;;;;;;;18.20;66.58;100826.38;5021807;23;20041;-96
2021/10/15 07:24:17;;;;;;;8.65;2.72;;;;;;;18.25;66.62;100845.41;5006839;28;20026;-96
2021/10/15 07:26:42;;;;;;;8.50;2.75;;;;;;;18.30;66.70;100836.97;4995336;28;20041;-96
2021/10/15 07:29:08;;;;;;;9.93;2.67;;;;;;;18.32;66.42;100840.34;4998210;28;20029;-96
2021/10/15 07:31:35;;;;;;;4.88;2.60;;;;;;;18.36;66.06;100847.03;5010998;28;20028;-96
2021/10/15 07:34:01;;;;;;;6.32;2.45;;;;;;;18.41;66.44;100850.09;5000192;28;20088;-96
2021/10/15 07:36:26;;;;;;;7.65;2.60;;;;;;;18.41;66.42;100850.09;4998870;28;20022;-96
2021/10/15 07:38:52;;;;;;;7.68;2.90;;;;;;;18.39;66.28;100854.72;4998043;28;20022;-96
2021/10/15 07:41:18;;;;;;;7.68;2.70;;;;;;;18.47;66.32;100865.47;4998178;28;20022;-96
2021/10/15 07:43:43;;;;;;;5.90;2.03;;;;;;;18.53;65.99;100866.72;4997569;28;20061;-96
2021/10/15 07:46:09;;;;;;;7.72;2.72;;;;;;;18.53;65.98;100856.91;4997878;28;20096;-96
2021/10/15 07:48:34;;;;;;;4.60;1.90;;;;;;;18.43;66.93;100880.03;4997745;28;20084;-96
2021/10/15 07:50:59;;;;;;;10.80;3.28;;;;;;;18.33;67.02;100877.41;4998016;28;20026;-96
2021/10/15 07:53:25;;;;;;;6.38;2.90;;;;;;;18.39;66.82;100879.50;5003365;28;20476;-96
2021/10/15 07:55:50;;;;;;;9.82;3.03;;;;;;;18.40;66.52;100880.31;4998184;28;20099;-96
2021/10/15 07:58:16;;;;;;;10.20;3.25;;;;;;;18.39;66.48;100883.97;4998471;28;20030;-96
2021/10/15 08:00:41;;;;;;;11.80;3.22;;;;;;;18.27;65.54;100879.81;5000368;28;20022;-96
2021/10/15 08:03:07;;;;;;;9.70;2.55;;;;;;;18.42;65.63;100896.97;4999725;28;20033;-96
2021/10/15 08:05:33;;;;;;;6.43;2.55;;;;;;;18.53;65.30;100899.47;4996437;28;20057;-96
2021/10/15 08:07:58;;;;;;;10.13;3.50;;;;;;;18.48;65.00;100895.56;4998367;28;20095;-96
2021/10/15 08:10:24;;;;;;;11.82;3.33;;;;;;;18.47;64.59;100902.72;4998921;28;20038;-96
2021/10/15 08:12:50;;;;;;;8.82;2.83;;;;;;;18.41;64.31;100908.59;5001027;28;20030;-96
2021/10/15 08:15:18;;;;;;;8.82;2.55;;;;;;;18.51;64.55;100897.94;5030047;28;20253;-96
2021/10/15 08:17:45;;;;;;;7.55;2.65;;;;;;;18.69;64.12;100916.66;4990057;28;20081;-96
2021/10/15 08:20:14;;;;;;;9.65;2.30;;;;;;;18.46;62.81;100922.28;4982251;28;20053;-96
2021/10/15 08:22:39;;;;;;;9.70;2.33;;;;;;;18.55;61.90;100909.97;4997109;28;20064;-96
2021/10/15 08:25:06;;;;;;;4.00;1.55;;;;;;;18.75;60.84;100914.25;4995776;28;20042;-96
2021/10/15 08:27:32;;;;;;;4.97;1.08;;;;;;;18.77;59.73;100925.56;4999495;28;20034;-96
2021/10/15 08:29:58;;;;;;;5.93;0.95;;;;;;;18.91;59.38;100929.63;4996983;28;20030;-89
2021/10/15 08:42:58;;;;;;;4.60;0.95;;;;;;;19.17;57.01;100944.91;5663776;22;20424;-96
2021/10/15 08:45:29;;;;;;;4.65;1.30;;;;;;;19.34;56.81;100938.81;5004392;28;20411;-95
2021/10/15 08:47:55;;;;;;;4.75;0.70;;;;;;;19.40;56.12;100940.06;5041647;28;20031;-96
2021/10/15 08:50:21;;;;;;;3.03;0.73;;;;;;;19.44;56.28;100946.75;5016745;28;20033;-96
2021/10/15 08:52:47;;;;;;;3.17;0.70;;;;;;;19.54;55.71;100946.69;5026283;28;20037;-96
2021/10/15 08:55:13;;;;;;;3.50;0.55;;;;;;;19.31;55.90;100954.25;5022348;28;20021;-96
2021/10/15 08:57:39;;;;;;;3.75;0.82;;;;;;;19.73;55.33;100959.09;5017081;28;20029;-96
2021/10/15 09:00:21;;;;;;;4.68;0.88;;;;;;;19.72;55.16;100963.56;5027282;28;20064;-96
2021/10/15 09:03:11;;;;;;;5.60;0.77;;;;;;;20.04;54.24;100969.38;5028473;28;20044;-96
2021/10/15 09:05:39;;;;;;;6.30;1.02;;;;;;;19.70;54.33;100970.84;5023549;28;20041;-96
2021/10/15 09:08:04;;;;;;;6.20;0.90;;;;;;;19.92;54.13;100972.25;5020615;28;20025;-96
2021/10/15 09:10:33;;;;;;;4.55;0.70;;;;;;;19.82;54.08;100974.16;5027539;28;20028;-96
2021/10/15 09:13:15;;;;;;;3.97;1.13;;;;;;;19.76;54.60;100978.25;5048963;28;20021;-96
2021/10/15 09:15:41;;;;;;;3.70;0.87;;;;;;;19.76;54.74;100969.44;5018942;28;20025;-96
2021/10/15 09:18:13;;;;;;;3.83;0.93;;;;;;;19.77;54.42;100976.47;5030048;28;20276;-96
2021/10/15 09:20:39;;;;;;;3.35;1.00;;;;;;;19.98;54.22;100981.47;5000209;28;20472;-96
2021/10/15 09:23:04;;;;;;;3.58;1.33;;;;;;;19.85;54.20;100983.69;5000677;28;20041;-96
2021/10/15 09:25:33;;;;;;;4.38;0.95;;;;;;;19.96;54.31;100986.13;4999095;28;20484;-96
2021/10/15 09:27:59;;;;;;;6.28;1.05;;;;;;;19.99;53.82;100968.00;5000277;28;20022;-96
2021/10/15 09:30:28;;;;;;;3.45;1.00;;;;;;;19.87;54.89;100981.72;5001525;28;20034;-96
2021/10/15 09:33:03;;;;;;;4.97;0.88;;;;;;;19.85;55.38;100973.03;5002206;28;20022;-96
2021/10/15 09:35:31;;;;;;;5.60;0.95;;;;;;;19.88;55.05;100983.38;5021801;28;20114;-96
2021/10/15 09:38:01;;;;;;;2.47;0.70;;;;;;;20.07;54.71;100991.25;5020252;28;20120;-96
2021/10/15 09:40:31;;;;;;;2.40;0.75;;;;;;;20.17;54.45;101008.00;5033202;28;20043;-96
2021/10/15 09:43:02;;;;;;;2.90;0.80;;;;;;;20.14;54.12;101010.13;5044771;28;20025;-96
2021/10/15 09:45:43;;;;;;;4.00;1.77;;;;;;;20.25;53.83;101015.25;5042381;28;20091;-96
2021/10/15 09:48:17;;;;;;;3.55;0.95;;;;;;;20.35;53.41;101008.00;5008289;28;20392;-96
2021/10/15 09:50:43;;;;;;;2.33;1.00;;;;;;;20.39;53.37;101008.53;5038332;28;20033;-96
2021/10/15 09:53:09;;;;;;;4.38;0.90;;;;;;;20.43;53.09;101003.72;5042716;28;20028;-96
2021/10/15 09:55:38;;;;;;;3.63;1.02;;;;;;;20.28;53.01;101000.75;5048272;28;20024;-96
2021/10/15 09:58:11;;;;;;;3.00;0.95;;;;;;;20.30;53.36;101009.44;5041710;28;20025;-96
2021/10/15 10:00:37;;;;;;;7.68;1.73;;;;;;;20.15;53.94;101015.31;5040501;28;20021;-96
2021/10/15 10:03:04;;;;;;;4.25;1.05;;;;;;;20.14;54.08;101013.66;5032843;28;20112;-96
2021/10/15 10:05:30;;;;;;;3.67;1.10;;;;;;;20.19;53.68;101019.34;5020459;28;20068;-96
2021/10/15 10:07:56;;;;;;;3.92;1.20;;;;;;;20.11;54.00;101027.28;5022431;28;20033;-96
2021/10/15 10:10:24;;;;;;;2.95;1.00;;;;;;;20.12;54.15;101023.63;5019820;28;20014;-96
2021/10/15 10:12:52;;;;;;;4.10;1.00;;;;;;;20.10;54.03;101022.94;5020722;28;20036;-96
2021/10/15 10:15:20;;;;;;;5.03;1.13;;;;;;;20.16;53.92;101025.00;5024693;28;20021;-92
2021/10/15 10:18:04;;;;;;;2.17;1.00;;;;;;;20.20;53.54;101025.50;5010115;28;20056;-96
2021/10/15 10:20:32;;;;;;;1.75;0.88;;;;;;;19.99;54.25;101031.16;5022779;28;20121;-94
2021/10/15 10:23:30;;;;;;;3.83;1.02;;;;;;;20.11;53.58;101032.59;5024200;28;20064;-96
2021/10/15 10:26:12;;;;;;;2.60;1.08;;;;;;;20.25;53.22;101017.06;5172402;23;20058;-96
2021/10/15 10:34:00;;;;;;;3.63;0.85;;;;;;;20.34;53.44;101027.66;5712848;22;20074;-96
2021/10/15 10:36:28;;;;;;;5.03;1.48;;;;;;;20.38;52.31;101029.03;5024834;28;20040;-96
2021/10/15 10:38:54;;;;;;;4.57;1.70;;;;;;;20.32;53.13;101042.13;5006422;28;20032;-96
2021/10/15 10:41:22;;;;;;;7.95;1.40;;;;;;;20.28;52.94;101028.28;5008102;28;20025;-96
2021/10/15 10:43:51;;;;;;;5.03;1.35;;;;;;;20.38;53.14;101038.88;5007914;28;20022;-96
2021/10/15 10:46:18;;;;;;;4.93;1.10;;;;;;;20.30;54.07;101036.97;5013331;28;20037;-96
2021/10/15 10:48:47;;;;;;;8.82;1.25;;;;;;;20.63;53.23;101041.78;5014164;28;20022;-96
2021/10/15 10:54:00;;;;;;;5.23;1.30;;;;;;;20.66;53.47;101052.97;5628204;23;20396;-95
2021/10/15 10:59:21;;;;;;;6.60;2.08;;;;;;;20.86;52.79;101066.97;5044982;22;19931;-96
2021/10/15 11:04:28;;;;;;;3.47;1.90;;;;;;;20.75;53.42;101061.88;5407357;22;20045;-96
2021/10/15 11:07:00;;;;;;;6.70;1.60;;;;;;;20.59;53.77;101068.75;5032814;28;20041;-96
2021/10/15 11:09:45;;;;;;;3.75;1.60;;;;;;;20.62;53.42;101072.97;5020186;28;20033;-96
2021/10/15 11:12:14;;;;;;;5.82;1.55;;;;;;;20.53;53.63;101047.16;5035919;28;20028;-96
2021/10/15 11:14:58;;;;;;;5.32;1.88;;;;;;;20.54;54.19;101068.34;5049170;28;20025;-96
2021/10/15 11:17:33;;;;;;;4.97;1.80;;;;;;;20.67;53.23;101059.16;5057705;28;20029;-96
2021/10/15 11:20:11;;;;;;;5.10;1.70;;;;;;;20.72;53.46;101079.03;5024380;28;20112;-95
2021/10/15 11:22:38;;;;;;;7.95;1.63;;;;;;;20.38;54.25;101076.22;5006134;28;20025;-96
2021/10/15 11:25:04;;;;;;;4.88;1.30;;;;;;;20.30;54.74;101078.78;5016309;28;20063;-96
2021/10/15 11:27:30;;;;;;;2.95;1.45;;;;;;;20.27;54.96;101089.75;5012098;28;20029;-96
2021/10/15 11:29:59;;;;;;;6.85;1.77;;;;;;;20.25;54.39;101097.91;5010982;28;20079;-96
2021/10/15 11:32:41;;;;;;;3.05;1.70;;;;;;;20.29;54.42;101093.09;5195268;23;20012;-91
2021/10/15 11:35:14;;;;;;;3.95;1.23;;;;;;;20.21;54.27;101097.34;4978326;28;20041;-95
2021/10/15 11:37:56;;;;;;;2.92;1.52;;;;;;;20.28;54.23;101094.09;4982972;28;20030;-96
2021/10/15 11:40:28;;;;;;;2.05;1.20;;;;;;;20.35;53.92;101103.16;4957215;28;20049;-95
2021/10/15 11:42:55;;;;;;;1.85;1.25;;;;;;;20.33;54.37;101095.31;4958082;28;20508;-96
2021/10/15 11:45:24;;;;;;;2.33;1.52;;;;;;;20.40;53.78;101095.56;4957566;28;20035;-96
2021/10/15 11:48:26;;;;;;;3.78;1.20;;;;;;;20.37;53.46;101102.03;4974482;28;20493;-96
2021/10/15 11:51:00;;;;;;;2.28;1.13;;;;;;;20.41;53.57;101092.72;4974673;28;20027;-95
2021/10/15 11:53:29;;;;;;;4.07;0.95;;;;;;;20.31;53.35;101096.47;4975008;28;20034;-96
2021/10/15 11:55:55;;;;;;;5.18;1.02;;;;;;;20.44;53.01;101096.94;4974785;28;20173;-96
2021/10/15 11:58:29;;;;;;;1.92;0.90;;;;;;;20.37;52.93;101098.53;4976475;28;20058;-95
2021/10/15 12:01:12;;;;;;;0.63;0.63;;;;;;;20.53;53.36;101096.00;4965786;28;20030;-96
2021/10/15 12:03:43;;;;;;;1.17;0.80;;;;;;;20.76;52.58;101096.41;4963007;28;20026;-96
2021/10/15 12:06:23;;;;;;;5.40;1.15;;;;;;;21.00;50.58;101098.44;4956509;28;20081;-96
2021/10/15 12:08:49;;;;;;;2.45;0.98;;;;;;;21.13;50.53;101099.84;4957003;28;20126;-96
2021/10/15 12:11:22;;;;;;;2.90;1.08;;;;;;;21.57;49.14;101097.16;4974505;28;20054;-95
2021/10/15 12:13:48;;;;;;;2.92;0.77;;;;;;;21.75;48.45;101091.72;4974142;28;20019;-96
2021/10/15 12:16:26;;;;;;;1.20;0.80;;;;;;;21.91;48.21;101096.31;4973731;28;20373;-96